sensor_id;sensor_type;location;lat;lon;timestamp;P1;durP1;ratioP1;P2;durP2;ratioP2
29384;SDS011;16367;48.736;9.218;2022-07-29T00:01:14;12.67;;;11.47;;
29384;SDS011;16367;48.736;9.218;2022-07-29T00:03:20;12.07;;;10.87;;
29384;SDS011;16367;48.736;9.218;2022-07-29T00:05:24;12.70;;;11.47;;
29384;SDS011;16367;48.736;9.218;2022-07-29T00:07:27;12.67;;;11.37;;
29384;SDS011;16367;48.736;9.218;2022-07-29T00:09:30;13.00;;;11.90;;
29384;SDS011;16367;48.736;9.218;2022-07-29T00:11:32;13.23;;;11.93;;
29384;SDS011;16367;48.736;9.218;2022-07-29T00:13:35;13.20;;;11.60;;
29384;SDS011;16367;48.736;9.218;2022-07-29T00:15:38;13.43;;;12.23;;
29384;SDS011;16367;48.736;9.218;2022-07-29T00:17:41;14.13;;;12.53;;
29384;SDS011;16367;48.736;9.218;2022-07-29T00:19:43;14.47;;;13.27;;
29384;SDS011;16367;48.736;9.218;2022-07-29T00:21:47;14.20;;;12.90;;
29384;SDS011;16367;48.736;9.218;2022-07-29T00:23:50;15.43;;;14.03;;
29384;SDS011;16367;48.736;9.218;2022-07-29T00:25:53;14.90;;;13.60;;
29384;SDS011;16367;48.736;9.218;2022-07-29T00:27:55;16.10;;;14.50;;
29384;SDS011;16367;48.736;9.218;2022-07-29T00:29:58;13.67;;;12.47;;
29384;SDS011;16367;48.736;9.218;2022-07-29T00:32:01;13.23;;;12.03;;
29384;SDS011;16367;48.736;9.218;2022-07-29T00:34:04;15.20;;;13.80;;
29384;SDS011;16367;48.736;9.218;2022-07-29T00:36:07;13.90;;;12.73;;
29384;SDS011;16367;48.736;9.218;2022-07-29T00:38:10;15.50;;;14.17;;
29384;SDS011;16367;48.736;9.218;2022-07-29T00:40:13;14.57;;;13.33;;
29384;SDS011;16367;48.736;9.218;2022-07-29T00:42:16;13.80;;;12.60;;
29384;SDS011;16367;48.736;9.218;2022-07-29T00:44:19;14.80;;;13.50;;
29384;SDS011;16367;48.736;9.218;2022-07-29T00:46:22;14.07;;;12.83;;
29384;SDS011;16367;48.736;9.218;2022-07-29T00:48:25;14.53;;;12.77;;
29384;SDS011;16367;48.736;9.218;2022-07-29T00:50:28;13.93;;;12.73;;
29384;SDS011;16367;48.736;9.218;2022-07-29T00:52:31;13.90;;;12.70;;
29384;SDS011;16367;48.736;9.218;2022-07-29T00:54:36;14.13;;;12.93;;
29384;SDS011;16367;48.736;9.218;2022-07-29T00:56:45;14.53;;;13.23;;
29384;SDS011;16367;48.736;9.218;2022-07-29T00:58:48;14.43;;;12.93;;
29384;SDS011;16367;48.736;9.218;2022-07-29T01:00:52;14.60;;;13.17;;
29384;SDS011;16367;48.736;9.218;2022-07-29T01:02:55;13.70;;;12.50;;
29384;SDS011;16367;48.736;9.218;2022-07-29T01:04:58;13.77;;;12.57;;
29384;SDS011;16367;48.736;9.218;2022-07-29T01:07:02;14.50;;;13.23;;
29384;SDS011;16367;48.736;9.218;2022-07-29T01:09:06;12.60;;;11.40;;
29384;SDS011;16367;48.736;9.218;2022-07-29T01:11:11;13.13;;;12.03;;
29384;SDS011;16367;48.736;9.218;2022-07-29T01:13:15;12.80;;;11.63;;
29384;SDS011;16367;48.736;9.218;2022-07-29T01:15:19;13.10;;;11.90;;
29384;SDS011;16367;48.736;9.218;2022-07-29T01:17:24;12.70;;;11.60;;
29384;SDS011;16367;48.736;9.218;2022-07-29T01:19:33;12.03;;;11.07;;
29384;SDS011;16367;48.736;9.218;2022-07-29T01:21:50;12.37;;;11.20;;
29384;SDS011;16367;48.736;9.218;2022-07-29T01:24:09;13.00;;;11.90;;
29384;SDS011;16367;48.736;9.218;2022-07-29T01:26:33;11.87;;;10.83;;
29384;SDS011;16367;48.736;9.218;2022-07-29T01:28:53;12.10;;;11.10;;
29384;SDS011;16367;48.736;9.218;2022-07-29T01:31:08;12.20;;;11.10;;
29384;SDS011;16367;48.736;9.218;2022-07-29T01:33:25;11.83;;;10.83;;
29384;SDS011;16367;48.736;9.218;2022-07-29T01:35:47;11.60;;;10.60;;
29384;SDS011;16367;48.736;9.218;2022-07-29T01:37:52;12.37;;;10.97;;
29384;SDS011;16367;48.736;9.218;2022-07-29T01:39:59;11.90;;;10.67;;
29384;SDS011;16367;48.736;9.218;2022-07-29T01:42:06;11.87;;;10.77;;
29384;SDS011;16367;48.736;9.218;2022-07-29T01:44:18;11.50;;;10.33;;
29384;SDS011;16367;48.736;9.218;2022-07-29T01:46:25;11.00;;;10.00;;
29384;SDS011;16367;48.736;9.218;2022-07-29T01:48:34;11.30;;;10.30;;
29384;SDS011;16367;48.736;9.218;2022-07-29T01:50:44;10.93;;;10.03;;
29384;SDS011;16367;48.736;9.218;2022-07-29T01:52:52;11.83;;;10.83;;
29384;SDS011;16367;48.736;9.218;2022-07-29T01:55:01;11.40;;;10.40;;
29384;SDS011;16367;48.736;9.218;2022-07-29T01:57:06;13.50;;;12.27;;
29384;SDS011;16367;48.736;9.218;2022-07-29T01:59:11;12.67;;;11.67;;
29384;SDS011;16367;48.736;9.218;2022-07-29T02:01:16;12.10;;;10.90;;
29384;SDS011;16367;48.736;9.218;2022-07-29T02:03:21;12.83;;;11.70;;
29384;SDS011;16367;48.736;9.218;2022-07-29T02:05:25;12.03;;;11.03;;
29384;SDS011;16367;48.736;9.218;2022-07-29T02:07:31;11.20;;;10.20;;
29384;SDS011;16367;48.736;9.218;2022-07-29T02:09:36;10.57;;;9.67;;
29384;SDS011;16367;48.736;9.218;2022-07-29T02:11:42;11.17;;;10.07;;
29384;SDS011;16367;48.736;9.218;2022-07-29T02:13:51;11.10;;;10.03;;
29384;SDS011;16367;48.736;9.218;2022-07-29T02:15:57;11.37;;;10.37;;
29384;SDS011;16367;48.736;9.218;2022-07-29T02:18:02;11.03;;;10.10;;
29384;SDS011;16367;48.736;9.218;2022-07-29T02:20:09;11.67;;;10.67;;
29384;SDS011;16367;48.736;9.218;2022-07-29T02:22:14;11.27;;;10.37;;
29384;SDS011;16367;48.736;9.218;2022-07-29T02:24:20;11.40;;;10.50;;
29384;SDS011;16367;48.736;9.218;2022-07-29T02:26:25;11.53;;;10.43;;
29384;SDS011;16367;48.736;9.218;2022-07-29T02:28:29;11.27;;;10.10;;
29384;SDS011;16367;48.736;9.218;2022-07-29T02:30:36;11.20;;;10.17;;
29384;SDS011;16367;48.736;9.218;2022-07-29T02:32:43;12.13;;;11.13;;
29384;SDS011;16367;48.736;9.218;2022-07-29T02:34:50;10.87;;;10.03;;
29384;SDS011;16367;48.736;9.218;2022-07-29T02:36:54;11.63;;;10.70;;
29384;SDS011;16367;48.736;9.218;2022-07-29T02:38:58;11.07;;;9.63;;
29384;SDS011;16367;48.736;9.218;2022-07-29T02:41:03;10.70;;;9.70;;
29384;SDS011;16367;48.736;9.218;2022-07-29T02:43:08;11.00;;;9.97;;
29384;SDS011;16367;48.736;9.218;2022-07-29T02:45:12;11.77;;;10.67;;
29384;SDS011;16367;48.736;9.218;2022-07-29T02:47:17;12.30;;;11.20;;
29384;SDS011;16367;48.736;9.218;2022-07-29T02:49:27;11.50;;;10.53;;
29384;SDS011;16367;48.736;9.218;2022-07-29T02:51:41;10.73;;;9.73;;
29384;SDS011;16367;48.736;9.218;2022-07-29T02:53:47;11.87;;;10.10;;
29384;SDS011;16367;48.736;9.218;2022-07-29T02:55:55;11.00;;;10.00;;
29384;SDS011;16367;48.736;9.218;2022-07-29T02:58:01;10.43;;;9.53;;
29384;SDS011;16367;48.736;9.218;2022-07-29T03:00:07;11.57;;;10.37;;
29384;SDS011;16367;48.736;9.218;2022-07-29T03:02:12;11.30;;;10.37;;
29384;SDS011;16367;48.736;9.218;2022-07-29T03:04:16;11.57;;;10.57;;
29384;SDS011;16367;48.736;9.218;2022-07-29T03:06:22;11.30;;;10.30;;
29384;SDS011;16367;48.736;9.218;2022-07-29T03:08:40;10.90;;;10.00;;
29384;SDS011;16367;48.736;9.218;2022-07-29T03:10:44;11.37;;;10.27;;
29384;SDS011;16367;48.736;9.218;2022-07-29T03:12:48;11.50;;;10.10;;
29384;SDS011;16367;48.736;9.218;2022-07-29T03:14:51;11.63;;;10.53;;
29384;SDS011;16367;48.736;9.218;2022-07-29T03:16:55;11.47;;;10.37;;
29384;SDS011;16367;48.736;9.218;2022-07-29T03:18:58;11.60;;;10.60;;
29384;SDS011;16367;48.736;9.218;2022-07-29T03:21:03;12.10;;;11.00;;
29384;SDS011;16367;48.736;9.218;2022-07-29T03:23:06;12.10;;;11.00;;
29384;SDS011;16367;48.736;9.218;2022-07-29T03:25:12;11.17;;;10.03;;
29384;SDS011;16367;48.736;9.218;2022-07-29T03:27:16;11.40;;;10.40;;
29384;SDS011;16367;48.736;9.218;2022-07-29T03:29:19;12.20;;;11.00;;
29384;SDS011;16367;48.736;9.218;2022-07-29T03:31:21;10.43;;;9.50;;
29384;SDS011;16367;48.736;9.218;2022-07-29T03:33:24;11.13;;;10.17;;
29384;SDS011;16367;48.736;9.218;2022-07-29T03:35:27;11.80;;;10.70;;
29384;SDS011;16367;48.736;9.218;2022-07-29T03:37:32;11.50;;;10.50;;
29384;SDS011;16367;48.736;9.218;2022-07-29T03:39:38;12.10;;;11.10;;
29384;SDS011;16367;48.736;9.218;2022-07-29T03:41:45;11.70;;;10.70;;
29384;SDS011;16367;48.736;9.218;2022-07-29T03:43:52;12.13;;;11.03;;
29384;SDS011;16367;48.736;9.218;2022-07-29T03:45:56;11.83;;;10.83;;
29384;SDS011;16367;48.736;9.218;2022-07-29T03:48:02;12.10;;;11.00;;
29384;SDS011;16367;48.736;9.218;2022-07-29T03:50:10;12.33;;;11.27;;
29384;SDS011;16367;48.736;9.218;2022-07-29T03:52:14;12.20;;;11.20;;
29384;SDS011;16367;48.736;9.218;2022-07-29T03:54:17;11.60;;;10.60;;
29384;SDS011;16367;48.736;9.218;2022-07-29T03:56:22;12.02;;;10.93;;
29384;SDS011;16367;48.736;9.218;2022-07-29T03:58:27;11.50;;;10.40;;
29384;SDS011;16367;48.736;9.218;2022-07-29T04:00:30;11.83;;;10.83;;
29384;SDS011;16367;48.736;9.218;2022-07-29T04:02:34;12.47;;;11.30;;
29384;SDS011;16367;48.736;9.218;2022-07-29T04:04:38;11.52;;;10.52;;
29384;SDS011;16367;48.736;9.218;2022-07-29T04:06:43;11.27;;;10.37;;
29384;SDS011;16367;48.736;9.218;2022-07-29T04:08:48;10.88;;;9.98;;
29384;SDS011;16367;48.736;9.218;2022-07-29T04:10:51;10.77;;;9.77;;
29384;SDS011;16367;48.736;9.218;2022-07-29T04:12:54;10.93;;;9.83;;
29384;SDS011;16367;48.736;9.218;2022-07-29T04:14:58;11.00;;;9.80;;
29384;SDS011;16367;48.736;9.218;2022-07-29T04:17:01;10.10;;;9.20;;
29384;SDS011;16367;48.736;9.218;2022-07-29T04:19:05;11.00;;;10.10;;
29384;SDS011;16367;48.736;9.218;2022-07-29T04:21:08;10.97;;;9.97;;
29384;SDS011;16367;48.736;9.218;2022-07-29T04:23:10;12.03;;;10.67;;
29384;SDS011;16367;48.736;9.218;2022-07-29T04:25:13;10.90;;;9.90;;
29384;SDS011;16367;48.736;9.218;2022-07-29T04:27:16;11.00;;;10.00;;
29384;SDS011;16367;48.736;9.218;2022-07-29T04:29:19;11.17;;;10.23;;
29384;SDS011;16367;48.736;9.218;2022-07-29T04:31:23;11.03;;;10.03;;
29384;SDS011;16367;48.736;9.218;2022-07-29T04:33:26;9.50;;;8.67;;
29384;SDS011;16367;48.736;9.218;2022-07-29T04:35:29;10.70;;;9.70;;
29384;SDS011;16367;48.736;9.218;2022-07-29T04:37:38;10.33;;;9.33;;
29384;SDS011;16367;48.736;9.218;2022-07-29T04:39:41;9.93;;;9.03;;
29384;SDS011;16367;48.736;9.218;2022-07-29T04:41:44;9.80;;;9.00;;
29384;SDS011;16367;48.736;9.218;2022-07-29T04:43:47;10.10;;;9.20;;
29384;SDS011;16367;48.736;9.218;2022-07-29T04:45:50;9.33;;;8.43;;
29384;SDS011;16367;48.736;9.218;2022-07-29T04:47:54;9.20;;;8.40;;
29384;SDS011;16367;48.736;9.218;2022-07-29T04:49:57;9.83;;;8.87;;
29384;SDS011;16367;48.736;9.218;2022-07-29T04:52:00;8.20;;;7.50;;
29384;SDS011;16367;48.736;9.218;2022-07-29T04:54:02;8.47;;;7.77;;
29384;SDS011;16367;48.736;9.218;2022-07-29T04:56:05;8.27;;;7.60;;
29384;SDS011;16367;48.736;9.218;2022-07-29T04:58:08;8.20;;;7.47;;
29384;SDS011;16367;48.736;9.218;2022-07-29T05:00:11;8.97;;;8.10;;
29384;SDS011;16367;48.736;9.218;2022-07-29T05:02:15;7.87;;;7.27;;
29384;SDS011;16367;48.736;9.218;2022-07-29T05:04:19;8.07;;;7.47;;
29384;SDS011;16367;48.736;9.218;2022-07-29T05:06:21;7.67;;;7.00;;
29384;SDS011;16367;48.736;9.218;2022-07-29T05:08:24;7.93;;;7.33;;
29384;SDS011;16367;48.736;9.218;2022-07-29T05:10:27;7.73;;;7.03;;
29384;SDS011;16367;48.736;9.218;2022-07-29T05:12:30;7.67;;;7.07;;
29384;SDS011;16367;48.736;9.218;2022-07-29T05:14:33;7.67;;;7.00;;
29384;SDS011;16367;48.736;9.218;2022-07-29T05:16:35;6.77;;;6.17;;
29384;SDS011;16367;48.736;9.218;2022-07-29T05:18:38;6.70;;;6.20;;
29384;SDS011;16367;48.736;9.218;2022-07-29T05:20:42;6.60;;;6.10;;
29384;SDS011;16367;48.736;9.218;2022-07-29T05:22:45;6.80;;;6.20;;
29384;SDS011;16367;48.736;9.218;2022-07-29T05:24:47;7.47;;;6.87;;
29384;SDS011;16367;48.736;9.218;2022-07-29T05:26:50;6.83;;;6.23;;
29384;SDS011;16367;48.736;9.218;2022-07-29T05:28:53;8.03;;;6.93;;
29384;SDS011;16367;48.736;9.218;2022-07-29T05:30:56;6.83;;;6.23;;
29384;SDS011;16367;48.736;9.218;2022-07-29T05:32:58;7.80;;;7.20;;
29384;SDS011;16367;48.736;9.218;2022-07-29T05:35:01;8.17;;;7.37;;
29384;SDS011;16367;48.736;9.218;2022-07-29T05:37:05;7.67;;;6.97;;
29384;SDS011;16367;48.736;9.218;2022-07-29T05:39:08;7.20;;;6.53;;
29384;SDS011;16367;48.736;9.218;2022-07-29T05:41:11;6.47;;;5.90;;
29384;SDS011;16367;48.736;9.218;2022-07-29T05:43:13;6.80;;;6.20;;
29384;SDS011;16367;48.736;9.218;2022-07-29T05:45:16;8.03;;;7.33;;
29384;SDS011;16367;48.736;9.218;2022-07-29T05:47:20;7.60;;;6.90;;
29384;SDS011;16367;48.736;9.218;2022-07-29T05:49:23;7.37;;;6.77;;
29384;SDS011;16367;48.736;9.218;2022-07-29T05:51:27;7.23;;;6.63;;
29384;SDS011;16367;48.736;9.218;2022-07-29T05:53:32;7.20;;;6.63;;
29384;SDS011;16367;48.736;9.218;2022-07-29T05:55:35;7.20;;;6.60;;
29384;SDS011;16367;48.736;9.218;2022-07-29T05:57:39;6.60;;;6.00;;
29384;SDS011;16367;48.736;9.218;2022-07-29T05:59:44;6.10;;;5.60;;
29384;SDS011;16367;48.736;9.218;2022-07-29T06:01:47;6.77;;;6.17;;
29384;SDS011;16367;48.736;9.218;2022-07-29T06:03:50;6.63;;;6.03;;
29384;SDS011;16367;48.736;9.218;2022-07-29T06:05:54;6.03;;;5.50;;
29384;SDS011;16367;48.736;9.218;2022-07-29T06:07:57;5.70;;;5.30;;
29384;SDS011;16367;48.736;9.218;2022-07-29T06:10:01;5.80;;;5.30;;
29384;SDS011;16367;48.736;9.218;2022-07-29T06:12:04;5.80;;;5.30;;
29384;SDS011;16367;48.736;9.218;2022-07-29T06:14:07;6.27;;;5.30;;
29384;SDS011;16367;48.736;9.218;2022-07-29T06:16:10;5.80;;;5.30;;
29384;SDS011;16367;48.736;9.218;2022-07-29T06:18:16;6.03;;;5.40;;
29384;SDS011;16367;48.736;9.218;2022-07-29T06:20:19;5.30;;;4.90;;
29384;SDS011;16367;48.736;9.218;2022-07-29T06:22:29;5.30;;;4.83;;
29384;SDS011;16367;48.736;9.218;2022-07-29T06:24:32;6.20;;;4.97;;
29384;SDS011;16367;48.736;9.218;2022-07-29T06:26:36;6.77;;;4.70;;
29384;SDS011;16367;48.736;9.218;2022-07-29T06:28:40;4.70;;;4.07;;
29384;SDS011;16367;48.736;9.218;2022-07-29T06:30:43;4.97;;;4.47;;
29384;SDS011;16367;48.736;9.218;2022-07-29T06:32:45;4.50;;;4.10;;
29384;SDS011;16367;48.736;9.218;2022-07-29T06:34:48;5.23;;;4.50;;
29384;SDS011;16367;48.736;9.218;2022-07-29T06:36:51;4.17;;;3.77;;
29384;SDS011;16367;48.736;9.218;2022-07-29T06:38:55;3.97;;;3.67;;
29384;SDS011;16367;48.736;9.218;2022-07-29T06:40:58;4.40;;;4.00;;
29384;SDS011;16367;48.736;9.218;2022-07-29T06:43:06;4.20;;;3.70;;
29384;SDS011;16367;48.736;9.218;2022-07-29T06:45:09;4.13;;;3.80;;
29384;SDS011;16367;48.736;9.218;2022-07-29T06:47:12;4.20;;;3.87;;
29384;SDS011;16367;48.736;9.218;2022-07-29T06:49:15;4.57;;;4.17;;
29384;SDS011;16367;48.736;9.218;2022-07-29T06:51:18;5.33;;;4.83;;
29384;SDS011;16367;48.736;9.218;2022-07-29T06:53:24;4.50;;;4.10;;
29384;SDS011;16367;48.736;9.218;2022-07-29T06:55:27;4.90;;;4.40;;
29384;SDS011;16367;48.736;9.218;2022-07-29T06:57:30;4.80;;;4.40;;
29384;SDS011;16367;48.736;9.218;2022-07-29T06:59:34;5.20;;;4.80;;
29384;SDS011;16367;48.736;9.218;2022-07-29T07:01:37;5.53;;;5.00;;
29384;SDS011;16367;48.736;9.218;2022-07-29T07:03:41;5.30;;;4.80;;
29384;SDS011;16367;48.736;9.218;2022-07-29T07:05:44;5.80;;;5.30;;
29384;SDS011;16367;48.736;9.218;2022-07-29T07:07:46;5.10;;;4.70;;
29384;SDS011;16367;48.736;9.218;2022-07-29T07:09:49;5.00;;;4.70;;
29384;SDS011;16367;48.736;9.218;2022-07-29T07:11:52;4.80;;;4.50;;
29384;SDS011;16367;48.736;9.218;2022-07-29T07:13:55;5.67;;;5.17;;
29384;SDS011;16367;48.736;9.218;2022-07-29T07:16:05;5.93;;;5.40;;
29384;SDS011;16367;48.736;9.218;2022-07-29T07:18:07;5.43;;;5.03;;
29384;SDS011;16367;48.736;9.218;2022-07-29T07:20:10;5.13;;;4.73;;
29384;SDS011;16367;48.736;9.218;2022-07-29T07:22:13;5.90;;;5.40;;
29384;SDS011;16367;48.736;9.218;2022-07-29T07:24:16;5.47;;;5.07;;
29384;SDS011;16367;48.736;9.218;2022-07-29T07:26:19;5.53;;;5.07;;
29384;SDS011;16367;48.736;9.218;2022-07-29T07:28:22;5.90;;;5.40;;
29384;SDS011;16367;48.736;9.218;2022-07-29T07:30:25;6.07;;;5.57;;
29384;SDS011;16367;48.736;9.218;2022-07-29T07:32:29;5.70;;;5.30;;
29384;SDS011;16367;48.736;9.218;2022-07-29T07:34:32;6.97;;;5.27;;
29384;SDS011;16367;48.736;9.218;2022-07-29T07:36:36;6.10;;;5.50;;
29384;SDS011;16367;48.736;9.218;2022-07-29T07:38:38;6.93;;;6.43;;
29384;SDS011;16367;48.736;9.218;2022-07-29T07:40:41;7.27;;;6.67;;
29384;SDS011;16367;48.736;9.218;2022-07-29T07:42:44;7.53;;;6.83;;
29384;SDS011;16367;48.736;9.218;2022-07-29T07:44:47;6.20;;;5.70;;
29384;SDS011;16367;48.736;9.218;2022-07-29T07:47:10;6.30;;;5.90;;
29384;SDS011;16367;48.736;9.218;2022-07-29T07:49:14;7.23;;;6.63;;
29384;SDS011;16367;48.736;9.218;2022-07-29T07:51:17;7.70;;;6.07;;
29384;SDS011;16367;48.736;9.218;2022-07-29T07:53:20;6.87;;;6.30;;
29384;SDS011;16367;48.736;9.218;2022-07-29T07:55:23;7.27;;;6.67;;
29384;SDS011;16367;48.736;9.218;2022-07-29T07:57:26;8.80;;;6.40;;
29384;SDS011;16367;48.736;9.218;2022-07-29T07:59:29;9.10;;;6.77;;
29384;SDS011;16367;48.736;9.218;2022-07-29T08:01:32;6.50;;;5.90;;
29384;SDS011;16367;48.736;9.218;2022-07-29T08:03:55;6.40;;;5.80;;
29384;SDS011;16367;48.736;9.218;2022-07-29T08:05:59;6.67;;;5.70;;
29384;SDS011;16367;48.736;9.218;2022-07-29T08:08:02;6.27;;;5.70;;
29384;SDS011;16367;48.736;9.218;2022-07-29T08:10:05;6.37;;;5.87;;
29384;SDS011;16367;48.736;9.218;2022-07-29T08:12:08;7.00;;;6.50;;
29384;SDS011;16367;48.736;9.218;2022-07-29T08:14:11;6.70;;;6.20;;
29384;SDS011;16367;48.736;9.218;2022-07-29T08:16:15;6.23;;;5.63;;
29384;SDS011;16367;48.736;9.218;2022-07-29T08:18:18;7.87;;;5.73;;
29384;SDS011;16367;48.736;9.218;2022-07-29T08:20:21;6.60;;;5.97;;
29384;SDS011;16367;48.736;9.218;2022-07-29T08:22:25;6.43;;;5.83;;
29384;SDS011;16367;48.736;9.218;2022-07-29T08:24:27;6.77;;;6.17;;
29384;SDS011;16367;48.736;9.218;2022-07-29T08:26:47;6.47;;;6.00;;
29384;SDS011;16367;48.736;9.218;2022-07-29T08:28:50;6.60;;;6.17;;
29384;SDS011;16367;48.736;9.218;2022-07-29T08:30:53;6.53;;;5.80;;
29384;SDS011;16367;48.736;9.218;2022-07-29T08:32:55;6.83;;;5.73;;
29384;SDS011;16367;48.736;9.218;2022-07-29T08:35:00;6.40;;;5.90;;
29384;SDS011;16367;48.736;9.218;2022-07-29T08:37:02;6.50;;;6.00;;
29384;SDS011;16367;48.736;9.218;2022-07-29T08:39:06;5.93;;;5.43;;
29384;SDS011;16367;48.736;9.218;2022-07-29T08:41:09;6.73;;;6.23;;
29384;SDS011;16367;48.736;9.218;2022-07-29T08:43:12;6.03;;;5.63;;
29384;SDS011;16367;48.736;9.218;2022-07-29T08:45:15;6.70;;;6.20;;
29384;SDS011;16367;48.736;9.218;2022-07-29T08:47:18;6.57;;;5.80;;
29384;SDS011;16367;48.736;9.218;2022-07-29T08:49:21;6.40;;;5.80;;
29384;SDS011;16367;48.736;9.218;2022-07-29T08:51:24;6.40;;;5.90;;
29384;SDS011;16367;48.736;9.218;2022-07-29T08:53:29;6.77;;;6.17;;
29384;SDS011;16367;48.736;9.218;2022-07-29T08:55:34;5.70;;;5.40;;
29384;SDS011;16367;48.736;9.218;2022-07-29T08:57:38;5.57;;;5.17;;
29384;SDS011;16367;48.736;9.218;2022-07-29T08:59:53;6.60;;;6.10;;
29384;SDS011;16367;48.736;9.218;2022-07-29T09:01:57;7.70;;;6.00;;
29384;SDS011;16367;48.736;9.218;2022-07-29T09:04:03;7.07;;;6.40;;
29384;SDS011;16367;48.736;9.218;2022-07-29T09:06:08;5.83;;;5.33;;
29384;SDS011;16367;48.736;9.218;2022-07-29T09:08:11;6.70;;;6.10;;
29384;SDS011;16367;48.736;9.218;2022-07-29T09:10:14;6.83;;;6.00;;
29384;SDS011;16367;48.736;9.218;2022-07-29T09:12:18;6.70;;;6.10;;
29384;SDS011;16367;48.736;9.218;2022-07-29T09:14:29;6.10;;;5.60;;
29384;SDS011;16367;48.736;9.218;2022-07-29T09:16:45;6.27;;;5.77;;
29384;SDS011;16367;48.736;9.218;2022-07-29T09:18:54;6.13;;;5.60;;
29384;SDS011;16367;48.736;9.218;2022-07-29T09:20:57;6.37;;;5.87;;
29384;SDS011;16367;48.736;9.218;2022-07-29T09:23:17;6.50;;;6.10;;
29384;SDS011;16367;48.736;9.218;2022-07-29T09:25:31;5.80;;;5.40;;
29384;SDS011;16367;48.736;9.218;2022-07-29T09:27:36;6.40;;;6.00;;
29384;SDS011;16367;48.736;9.218;2022-07-29T09:29:39;5.93;;;5.43;;
29384;SDS011;16367;48.736;9.218;2022-07-29T09:31:42;6.90;;;6.40;;
29384;SDS011;16367;48.736;9.218;2022-07-29T09:33:47;7.07;;;6.47;;
29384;SDS011;16367;48.736;9.218;2022-07-29T09:35:58;6.57;;;6.17;;
29384;SDS011;16367;48.736;9.218;2022-07-29T09:38:09;5.93;;;5.43;;
29384;SDS011;16367;48.736;9.218;2022-07-29T09:40:14;6.70;;;6.10;;
29384;SDS011;16367;48.736;9.218;2022-07-29T09:42:27;6.60;;;6.20;;
29384;SDS011;16367;48.736;9.218;2022-07-29T09:44:45;7.20;;;6.47;;
29384;SDS011;16367;48.736;9.218;2022-07-29T09:46:56;7.10;;;6.60;;
29384;SDS011;16367;48.736;9.218;2022-07-29T09:49:06;7.63;;;6.90;;
29384;SDS011;16367;48.736;9.218;2022-07-29T09:51:16;8.53;;;6.80;;
29384;SDS011;16367;48.736;9.218;2022-07-29T09:53:31;7.87;;;7.17;;
29384;SDS011;16367;48.736;9.218;2022-07-29T09:55:45;7.63;;;7.03;;
29384;SDS011;16367;48.736;9.218;2022-07-29T09:57:49;9.00;;;6.83;;
29384;SDS011;16367;48.736;9.218;2022-07-29T10:00:00;8.20;;;7.60;;
29384;SDS011;16367;48.736;9.218;2022-07-29T10:02:10;7.50;;;6.90;;
29384;SDS011;16367;48.736;9.218;2022-07-29T10:04:22;7.73;;;6.97;;
29384;SDS011;16367;48.736;9.218;2022-07-29T10:06:25;7.73;;;7.00;;
29384;SDS011;16367;48.736;9.218;2022-07-29T10:08:27;8.23;;;7.60;;
29384;SDS011;16367;48.736;9.218;2022-07-29T10:10:32;8.00;;;7.30;;
29384;SDS011;16367;48.736;9.218;2022-07-29T10:12:45;8.30;;;7.57;;
29384;SDS011;16367;48.736;9.218;2022-07-29T10:14:51;8.70;;;7.90;;
29384;SDS011;16367;48.736;9.218;2022-07-29T10:16:56;8.23;;;7.53;;
29384;SDS011;16367;48.736;9.218;2022-07-29T10:18:59;7.77;;;7.17;;
29384;SDS011;16367;48.736;9.218;2022-07-29T10:21:02;8.40;;;7.70;;
29384;SDS011;16367;48.736;9.218;2022-07-29T10:23:05;8.83;;;7.97;;
29384;SDS011;16367;48.736;9.218;2022-07-29T10:25:08;8.23;;;7.53;;
29384;SDS011;16367;48.736;9.218;2022-07-29T10:27:12;7.80;;;7.20;;
29384;SDS011;16367;48.736;9.218;2022-07-29T10:29:15;8.80;;;8.20;;
29384;SDS011;16367;48.736;9.218;2022-07-29T10:31:19;8.80;;;7.90;;
29384;SDS011;16367;48.736;9.218;2022-07-29T10:33:43;8.17;;;7.57;;
29384;SDS011;16367;48.736;9.218;2022-07-29T10:35:59;8.30;;;7.70;;
29384;SDS011;16367;48.736;9.218;2022-07-29T10:40:48;8.70;;;8.00;;
29384;SDS011;16367;48.736;9.218;2022-07-29T10:43:20;9.13;;;8.33;;
29384;SDS011;16367;48.736;9.218;2022-07-29T10:45:26;8.80;;;8.10;;
29384;SDS011;16367;48.736;9.218;2022-07-29T10:47:31;8.43;;;7.83;;
29384;SDS011;16367;48.736;9.218;2022-07-29T10:49:37;9.37;;;8.57;;
29384;SDS011;16367;48.736;9.218;2022-07-29T10:51:51;9.00;;;8.30;;
29384;SDS011;16367;48.736;9.218;2022-07-29T10:54:15;9.27;;;8.50;;
29384;SDS011;16367;48.736;9.218;2022-07-29T10:56:28;8.30;;;7.70;;
29384;SDS011;16367;48.736;9.218;2022-07-29T10:58:32;8.93;;;8.17;;
29384;SDS011;16367;48.736;9.218;2022-07-29T11:00:36;9.37;;;8.50;;
29384;SDS011;16367;48.736;9.218;2022-07-29T11:02:40;8.60;;;7.90;;
29384;SDS011;16367;48.736;9.218;2022-07-29T11:05:02;9.10;;;8.40;;
29384;SDS011;16367;48.736;9.218;2022-07-29T11:07:06;9.57;;;8.67;;
29384;SDS011;16367;48.736;9.218;2022-07-29T11:09:16;10.43;;;9.50;;
29384;SDS011;16367;48.736;9.218;2022-07-29T11:11:35;7.80;;;7.10;;
29384;SDS011;16367;48.736;9.218;2022-07-29T11:13:47;7.63;;;6.30;;
29384;SDS011;16367;48.736;9.218;2022-07-29T11:15:53;10.37;;;9.00;;
29384;SDS011;16367;48.736;9.218;2022-07-29T11:18:03;11.70;;;10.57;;
29384;SDS011;16367;48.736;9.218;2022-07-29T11:22:38;9.20;;;8.30;;
29384;SDS011;16367;48.736;9.218;2022-07-29T11:27:17;8.50;;;7.70;;
29384;SDS011;16367;48.736;9.218;2022-07-29T11:29:23;12.07;;;10.73;;
29384;SDS011;16367;48.736;9.218;2022-07-29T11:31:37;14.00;;;11.63;;
29384;SDS011;16367;48.736;9.218;2022-07-29T11:33:42;15.00;;;13.25;;
29384;SDS011;16367;48.736;9.218;2022-07-29T11:36:11;18.70;;;16.80;;
29384;SDS011;16367;48.736;9.218;2022-07-29T11:38:23;18.53;;;16.70;;
29384;SDS011;16367;48.736;9.218;2022-07-29T11:40:29;12.60;;;11.30;;
29384;SDS011;16367;48.736;9.218;2022-07-29T11:44:56;10.40;;;9.35;;
29384;SDS011;16367;48.736;9.218;2022-07-29T11:47:21;7.22;;;6.53;;
29384;SDS011;16367;48.736;9.218;2022-07-29T11:49:27;8.05;;;7.35;;
29384;SDS011;16367;48.736;9.218;2022-07-29T11:51:34;10.63;;;9.18;;
29384;SDS011;16367;48.736;9.218;2022-07-29T11:53:48;10.55;;;9.50;;
29384;SDS011;16367;48.736;9.218;2022-07-29T11:55:54;6.00;;;5.40;;
29384;SDS011;16367;48.736;9.218;2022-07-29T11:57:59;8.93;;;8.13;;
29384;SDS011;16367;48.736;9.218;2022-07-29T12:00:05;9.70;;;8.90;;
29384;SDS011;16367;48.736;9.218;2022-07-29T12:02:14;9.80;;;8.90;;
29384;SDS011;16367;48.736;9.218;2022-07-29T12:04:47;9.00;;;7.97;;
29384;SDS011;16367;48.736;9.218;2022-07-29T12:06:53;8.73;;;7.50;;
29384;SDS011;16367;48.736;9.218;2022-07-29T12:09:00;7.73;;;7.03;;
29384;SDS011;16367;48.736;9.218;2022-07-29T12:11:15;7.60;;;6.90;;
29384;SDS011;16367;48.736;9.218;2022-07-29T12:13:22;7.43;;;6.73;;
29384;SDS011;16367;48.736;9.218;2022-07-29T12:15:38;7.87;;;6.07;;
29384;SDS011;16367;48.736;9.218;2022-07-29T12:17:47;5.93;;;5.43;;
29384;SDS011;16367;48.736;9.218;2022-07-29T12:19:50;8.13;;;6.00;;
29384;SDS011;16367;48.736;9.218;2022-07-29T12:21:55;6.70;;;6.10;;
29384;SDS011;16367;48.736;9.218;2022-07-29T12:24:02;7.87;;;6.90;;
29384;SDS011;16367;48.736;9.218;2022-07-29T12:26:09;7.27;;;6.57;;
29384;SDS011;16367;48.736;9.218;2022-07-29T12:28:25;7.97;;;7.17;;
29384;SDS011;16367;48.736;9.218;2022-07-29T12:30:35;8.67;;;7.97;;
29384;SDS011;16367;48.736;9.218;2022-07-29T12:32:42;7.57;;;6.93;;
29384;SDS011;16367;48.736;9.218;2022-07-29T12:34:46;8.70;;;7.10;;
29384;SDS011;16367;48.736;9.218;2022-07-29T12:36:49;8.67;;;7.77;;
29384;SDS011;16367;48.736;9.218;2022-07-29T12:38:54;8.43;;;7.50;;
29384;SDS011;16367;48.736;9.218;2022-07-29T12:40:57;8.30;;;7.60;;